createdAt,value
2018-05-08T00:00:43.397Z,997.12
2018-05-08T00:01:53.413Z,997.09
2018-05-08T00:03:03.435Z,997.11
2018-05-08T00:04:13.202Z,997.06
2018-05-08T00:05:23.229Z,997.1
2018-05-08T00:06:33.001Z,997.1
2018-05-08T00:07:42.991Z,997.11
2018-05-08T00:08:53.074Z,997.08
2018-05-08T00:10:02.845Z,997.08
2018-05-08T00:11:12.851Z,997.04
2018-05-08T00:12:22.593Z,997.01
2018-05-08T00:13:32.697Z,997.02
2018-05-08T00:14:42.724Z,997.01
2018-05-08T00:15:52.513Z,996.94
2018-05-08T00:17:02.528Z,997
2018-05-08T00:18:12.553Z,996.96
2018-05-08T00:19:22.569Z,996.97
2018-05-08T00:20:32.611Z,996.91
2018-05-08T00:21:42.409Z,996.89
2018-05-08T00:22:52.418Z,996.89
2018-05-08T00:24:02.162Z,996.86
2018-05-08T00:25:12.192Z,996.81
2018-05-08T00:26:21.957Z,996.82
2018-05-08T00:27:31.709Z,996.85
2018-05-08T00:28:41.717Z,996.83
2018-05-08T00:29:51.726Z,996.82
2018-05-08T00:31:01.833Z,996.81
2018-05-08T00:32:11.834Z,996.79
2018-05-08T00:33:21.894Z,996.8
2018-05-08T00:34:31.641Z,996.79
2018-05-08T00:35:41.672Z,996.72
2018-05-08T00:36:51.682Z,996.69
2018-05-08T00:38:01.686Z,996.7
2018-05-08T00:39:11.432Z,996.67
2018-05-08T00:40:21.448Z,996.65
2018-05-08T00:41:31.459Z,996.65
2018-05-08T00:42:41.473Z,996.68
2018-05-08T00:43:51.510Z,996.65
2018-05-08T00:45:01.535Z,996.68
2018-05-08T00:46:11.562Z,996.68
2018-05-08T00:47:21.331Z,996.65
2018-05-08T00:48:31.369Z,996.63
2018-05-08T00:49:41.372Z,996.66
2018-05-08T00:50:51.149Z,996.67
2018-05-08T00:52:00.885Z,996.64
2018-05-08T00:53:10.885Z,996.69
2018-05-08T00:54:20.886Z,996.68
2018-05-08T00:55:30.914Z,996.66
2018-05-08T00:56:40.977Z,996.72
2018-05-08T00:57:50.970Z,996.68
2018-05-08T00:59:01.009Z,996.66
2018-05-08T01:00:11.014Z,996.66
2018-05-08T01:01:21.023Z,996.59
2018-05-08T01:02:31.067Z,996.58
2018-05-08T01:03:40.834Z,996.55
2018-05-08T01:04:50.882Z,996.55
2018-05-08T01:06:00.883Z,996.57
2018-05-08T01:07:10.968Z,996.57
2018-05-08T01:08:20.972Z,996.55
2018-05-08T01:09:30.988Z,996.59
2018-05-08T01:10:41.021Z,996.6
2018-05-08T01:11:51.036Z,996.59
2018-05-08T01:13:00.537Z,996.59
2018-05-08T01:14:10.546Z,996.6
2018-05-08T01:15:20.307Z,996.59
2018-05-08T01:16:29.820Z,996.55
2018-05-08T01:17:39.843Z,996.52
2018-05-08T01:18:49.859Z,996.54
2018-05-08T01:19:59.712Z,996.53
2018-05-08T01:21:09.734Z,996.47
2018-05-08T01:22:19.738Z,996.46
2018-05-08T01:23:29.745Z,996.42
2018-05-08T01:24:39.239Z,996.46
2018-05-08T01:25:49.262Z,996.39
2018-05-08T01:26:59.090Z,996.38
2018-05-08T01:28:09.165Z,996.41
2018-05-08T01:29:19.250Z,996.38
2018-05-08T01:30:29.327Z,996.39
2018-05-08T01:31:39.413Z,996.44
2018-05-08T01:32:49.759Z,996.45
2018-05-08T01:33:59.837Z,996.37
2018-05-08T01:35:09.895Z,996.36
2018-05-08T01:36:19.520Z,996.34
2018-05-08T01:37:29.590Z,996.36
2018-05-08T01:38:39.404Z,996.32
2018-05-08T01:39:49.226Z,996.27
2018-05-08T01:40:59.313Z,996.25
2018-05-08T01:42:09.395Z,996.3
2018-05-08T01:43:19.552Z,996.29
2018-05-08T01:44:29.805Z,996.29
2018-05-08T01:45:39.990Z,996.3
2018-05-08T01:46:49.822Z,996.25
2018-05-08T01:47:59.903Z,996.26
2018-05-08T01:49:09.970Z,996.24
2018-05-08T01:50:20.038Z,996.27
2018-05-08T01:51:29.594Z,996.22
2018-05-08T01:52:39.417Z,996.21
2018-05-08T01:53:49.509Z,996.2
2018-05-08T01:54:59.051Z,996.21
2018-05-08T01:56:09.141Z,996.19
2018-05-08T01:57:19.219Z,996.23
2018-05-08T01:58:29.284Z,996.21
2018-05-08T01:59:39.359Z,996.17
2018-05-08T02:00:49.433Z,996.19
2018-05-08T02:01:59.499Z,996.17
2018-05-08T02:03:09.577Z,996.16
2018-05-08T02:04:19.657Z,996.15
2018-05-08T02:05:29.735Z,996.13
2018-05-08T02:06:39.842Z,996.17
2018-05-08T02:07:49.686Z,996.19
2018-05-08T02:08:59.772Z,996.17
2018-05-08T02:10:09.856Z,996.21
2018-05-08T02:11:19.932Z,996.19
2018-05-08T02:12:30.026Z,996.18
2018-05-08T02:13:40.112Z,996.18
2018-05-08T02:14:50.204Z,996.15
2018-05-08T02:16:00.026Z,996.13
2018-05-08T02:17:10.107Z,996.18
2018-05-08T02:18:19.924Z,996.17
2018-05-08T02:19:29.475Z,996.16
2018-05-08T02:20:39.569Z,996.14
2018-05-08T02:21:49.384Z,996.15
2018-05-08T02:22:59.463Z,996.14
2018-05-08T02:24:09.529Z,996.11
2018-05-08T02:25:19.600Z,996.1
2018-05-08T02:26:29.688Z,996.1
2018-05-08T02:27:39.761Z,996.09
2018-05-08T02:28:49.837Z,996.07
2018-05-08T02:29:59.906Z,996.05
2018-05-08T02:31:09.892Z,996.08
2018-05-08T02:32:19.977Z,996.03
2018-05-08T02:33:30.077Z,996.03
2018-05-08T02:34:39.907Z,996
2018-05-08T02:35:49.714Z,995.98
2018-05-08T02:36:59.834Z,995.99
2018-05-08T02:38:09.646Z,995.97
2018-05-08T02:39:19.717Z,995.98
2018-05-08T02:40:29.555Z,995.98
2018-05-08T02:41:39.106Z,995.99
2018-05-08T02:42:48.937Z,995.92
2018-05-08T02:43:58.752Z,995.92
2018-05-08T02:45:08.564Z,995.91
2018-05-08T02:46:18.715Z,995.87
2018-05-08T02:47:28.784Z,995.84
2018-05-08T02:48:38.851Z,995.83
2018-05-08T02:49:48.953Z,995.81
2018-05-08T02:50:59.047Z,995.85
2018-05-08T02:52:08.905Z,995.82
2018-05-08T02:53:18.980Z,995.83
2018-05-08T02:54:29.069Z,995.8
2018-05-08T02:55:38.896Z,995.81
2018-05-08T02:56:48.972Z,995.76
2018-05-08T02:57:58.836Z,995.74
2018-05-08T02:59:08.899Z,995.72
2018-05-08T03:00:18.728Z,995.73
2018-05-08T03:01:28.803Z,995.69
2018-05-08T03:02:38.865Z,995.7
2018-05-08T03:34:03.072Z,995.79
2018-05-08T03:35:12.884Z,995.8
2018-05-08T03:36:22.692Z,995.76
2018-05-08T03:37:32.235Z,995.82
2018-05-08T03:38:42.304Z,995.83
2018-05-08T03:39:52.420Z,995.82
2018-05-08T03:41:02.509Z,995.8
2018-05-08T03:42:12.605Z,995.82
2018-05-08T03:43:22.686Z,995.85
2018-05-08T03:44:32.744Z,995.85
2018-05-08T03:45:42.809Z,995.89
2018-05-08T03:46:52.909Z,995.86
2018-05-08T03:48:02.988Z,995.86
2018-05-08T03:49:13.094Z,995.84
2018-05-08T03:50:22.951Z,995.84
2018-05-08T03:51:32.776Z,995.85
2018-05-08T03:52:42.854Z,995.87
2018-05-08T03:53:52.409Z,995.84
2018-05-08T03:55:02.482Z,995.81
2018-05-08T03:56:12.552Z,995.79
2018-05-08T03:57:22.730Z,995.75
2018-05-08T03:58:32.843Z,995.73
2018-05-08T03:59:42.927Z,995.76
2018-05-08T04:00:52.992Z,995.71
2018-05-08T04:02:03.062Z,995.72
2018-05-08T04:03:13.195Z,995.66
2018-05-08T04:04:23.278Z,995.62
2018-05-08T04:05:33.147Z,995.62
2018-05-08T04:06:42.703Z,995.65
2018-05-08T04:07:52.522Z,995.66
2018-05-08T04:09:02.329Z,995.68
2018-05-08T04:10:11.871Z,995.69
2018-05-08T04:11:21.677Z,995.75
2018-05-08T04:12:31.483Z,995.73
2018-05-08T04:13:41.289Z,995.73
2018-05-08T04:14:51.098Z,995.75
2018-05-08T04:16:01.260Z,995.73
2018-05-08T04:17:11.325Z,995.72
2018-05-08T04:18:21.413Z,995.71
2018-05-08T04:19:31.496Z,995.68
2018-05-08T04:20:41.057Z,995.81
2018-05-08T04:21:50.616Z,995.98
2018-05-08T04:23:00.702Z,996
2018-05-08T04:24:10.761Z,995.95
2018-05-08T04:25:20.592Z,995.85
2018-05-08T04:26:30.711Z,995.88
2018-05-08T04:27:40.801Z,995.79
2018-05-08T04:28:50.616Z,995.75
2018-05-08T04:30:00.441Z,995.81
2018-05-08T04:31:10.535Z,995.83
2018-05-08T04:32:20.629Z,995.79
2018-05-08T04:33:30.461Z,995.78
2018-05-08T04:34:40.104Z,995.83
2018-05-08T04:35:49.920Z,995.86
2018-05-08T04:36:59.990Z,995.97
2018-05-08T04:38:10.061Z,996.03
2018-05-08T04:39:19.871Z,996.11
2018-05-08T04:40:29.689Z,996.09
2018-05-08T04:41:39.776Z,996.1
2018-05-08T04:42:49.853Z,996.21
2018-05-08T04:43:59.934Z,996.34
2018-05-08T04:45:10.024Z,996.29
2018-05-08T04:46:20.107Z,996.23
2018-05-08T04:47:30.014Z,996.15
2018-05-08T04:48:40.196Z,996.1
2018-05-08T04:49:50.263Z,996.02
2018-05-08T04:51:00.352Z,996
2018-05-08T04:52:10.427Z,996.03
2018-05-08T04:53:20.257Z,996.05
2018-05-08T04:54:30.345Z,996.11
2018-05-08T04:55:40.168Z,996.07
2018-05-08T04:56:50.420Z,996.09
2018-05-08T04:58:00.259Z,996.03
2018-05-08T04:59:10.339Z,996.04
2018-05-08T05:00:20.159Z,996.04
2018-05-08T05:01:30.257Z,996.36
2018-05-08T05:02:40.461Z,996.67
2018-05-08T05:03:50.935Z,996.63
2018-05-08T05:05:01.026Z,996.48
2018-05-08T05:06:10.844Z,996.45
2018-05-08T05:07:20.915Z,996.48
2018-05-08T05:08:30.986Z,996.47
2018-05-08T05:09:41.064Z,996.53
2018-05-08T05:10:51.141Z,996.66
2018-05-08T05:12:00.695Z,996.64
2018-05-08T05:13:10.883Z,996.56
2018-05-08T05:14:20.694Z,996.47
2018-05-08T05:15:30.787Z,996.44
2018-05-08T05:16:40.935Z,996.39
2018-05-08T05:17:51.286Z,996.34
2018-05-08T05:19:01.207Z,996.41
2018-05-08T05:20:11.023Z,996.4
2018-05-08T05:21:20.850Z,996.26
2018-05-08T05:22:30.655Z,996.16
2018-05-08T05:23:40.737Z,995.87
2018-05-08T05:24:50.834Z,995.75
2018-05-08T05:26:00.125Z,995.56
2018-05-08T05:27:09.943Z,995.65
2018-05-08T05:28:20.032Z,995.67
2018-05-08T05:29:30.106Z,995.83
2018-05-08T05:30:39.933Z,996.3
2018-05-08T05:31:50.016Z,996.34
2018-05-08T05:33:00.113Z,996.33
2018-05-08T05:34:09.936Z,996.32
2018-05-08T05:35:19.511Z,995.8
2018-05-08T05:36:29.594Z,995.67
2018-05-08T05:37:39.678Z,995.66
2018-05-08T05:38:49.764Z,995.67
2018-05-08T05:39:59.574Z,995.63
2018-05-08T05:41:09.644Z,995.65
2018-05-08T05:42:19.257Z,995.64
2018-05-08T05:43:29.337Z,995.62
2018-05-08T05:44:39.427Z,995.63
2018-05-08T05:45:49.256Z,995.92
2018-05-08T05:46:59.356Z,995.65
2018-05-08T05:48:09.436Z,995.72
2018-05-08T05:49:19.524Z,996.14
2018-05-08T05:50:29.355Z,995.88
2018-05-08T05:51:39.433Z,995.58
2018-05-08T05:52:49.507Z,995.6
2018-05-08T05:53:59.109Z,995.6
2018-05-08T05:55:08.937Z,995.8
2018-05-08T05:56:19.004Z,995.81
2018-05-08T05:57:29.109Z,995.58
2018-05-08T05:58:38.928Z,995.53
2018-05-08T05:59:49.004Z,995.5
2018-05-08T06:00:59.124Z,995.44
2018-05-08T06:02:09.223Z,995.41
2018-05-08T06:03:19.312Z,995.44
2018-05-08T06:04:29.412Z,995.46
2018-05-08T06:05:39.502Z,995.43
2018-05-08T06:06:49.579Z,995.46
2018-05-08T06:07:59.655Z,995.49
2018-05-08T06:09:09.755Z,995.57
2018-05-08T06:10:19.839Z,995.64
2018-05-08T06:11:29.926Z,995.67
2018-05-08T06:12:40.009Z,995.6
2018-05-08T06:13:50.096Z,995.61
2018-05-08T06:15:00.197Z,995.57
2018-05-08T06:16:10.277Z,995.54
2018-05-08T06:17:20.177Z,995.55
2018-05-08T06:18:30.264Z,995.46
2018-05-08T06:19:40.091Z,995.48
2018-05-08T06:20:49.913Z,995.46
2018-05-08T06:21:59.726Z,995.48
2018-05-08T06:23:09.847Z,995.46
2018-05-08T06:24:19.934Z,995.43
2018-05-08T06:25:29.776Z,995.46
2018-05-08T06:26:39.919Z,995.47
2018-05-08T06:27:49.993Z,995.48
2018-05-08T06:29:00.118Z,995.53
2018-05-08T06:30:09.934Z,995.48
2018-05-08T06:31:20.015Z,995.5
2018-05-08T06:32:30.094Z,995.53
2018-05-08T06:33:40.191Z,995.57
2018-05-08T06:34:49.738Z,995.6
2018-05-08T06:35:59.830Z,995.55
2018-05-08T06:37:09.658Z,995.48
2018-05-08T06:38:19.727Z,995.52
2018-05-08T06:39:29.322Z,995.51
2018-05-08T06:40:39.333Z,995.44
2018-05-08T06:41:49.416Z,995.5
2018-05-08T06:42:59.228Z,995.53
2018-05-08T06:44:09.339Z,995.49
2018-05-08T06:45:18.974Z,995.48
2018-05-08T06:46:28.851Z,995.47
2018-05-08T06:47:38.804Z,995.52
2018-05-08T06:48:48.879Z,995.48
2018-05-08T06:49:58.973Z,995.48
2018-05-08T06:51:08.805Z,995.45
2018-05-08T06:52:18.892Z,995.46
2018-05-08T06:53:28.973Z,995.49
2018-05-08T06:54:39.058Z,995.5
2018-05-08T06:55:49.223Z,995.46
2018-05-08T06:56:58.775Z,995.45
2018-05-08T06:58:08.966Z,995.44
2018-05-08T06:59:19.057Z,995.47
2018-05-08T07:00:29.132Z,995.47
2018-05-08T07:01:39.221Z,995.44
2018-05-08T07:02:49.382Z,995.37
2018-05-08T07:03:59.513Z,995.37
2018-05-08T07:05:09.572Z,995.33
2018-05-08T07:06:19.656Z,995.35
2018-05-08T07:07:29.744Z,995.35
2018-05-08T07:08:39.557Z,995.33
2018-05-08T07:09:49.645Z,995.29
2018-05-08T07:10:59.723Z,995.26
2018-05-08T07:12:09.551Z,995.29
2018-05-08T07:13:19.635Z,995.2
2018-05-08T07:14:29.713Z,995.22
2018-05-08T07:15:39.594Z,995.25
2018-05-08T07:16:50.343Z,995.21
2018-05-08T07:18:00.517Z,995.16
2018-05-08T07:19:10.697Z,995.21
2018-05-08T07:20:20.509Z,995.16
2018-05-08T07:21:30.331Z,995.16
2018-05-08T07:22:40.426Z,995.2
2018-05-08T07:23:50.247Z,995.17
2018-05-08T07:25:00.547Z,995.21
2018-05-08T07:26:10.382Z,995.25
2018-05-08T07:27:20.213Z,995.25
2018-05-08T07:28:29.769Z,995.31
2018-05-08T07:29:39.575Z,995.3
2018-05-08T07:30:49.442Z,995.35
2018-05-08T07:31:59.633Z,995.33
2018-05-08T07:33:09.725Z,995.29
2018-05-08T07:34:19.829Z,995.23
2018-05-08T07:35:29.934Z,995.26
2018-05-08T07:36:39.768Z,995.27
2018-05-08T07:37:49.858Z,995.29
2018-05-08T07:38:59.671Z,995.22
2018-05-08T07:40:09.212Z,995.22
2018-05-08T07:41:19.022Z,995.23
2018-05-08T07:42:29.098Z,995.29
2018-05-08T07:43:39.186Z,995.14
2018-05-08T07:44:49.035Z,995.13
2018-05-08T07:45:59.105Z,995.13
2018-05-08T07:47:09.196Z,995.2
2018-05-08T07:48:19.282Z,995.22
2018-05-08T07:49:29.371Z,995.2
2018-05-08T07:50:39.224Z,995.16
2018-05-08T07:51:49.422Z,995.17
2018-05-08T07:52:59.749Z,995.07
2018-05-08T07:54:09.586Z,995.09
2018-05-08T07:55:19.683Z,995.05
2018-05-08T07:56:29.778Z,995.01
2018-05-08T07:57:39.883Z,995.07
2018-05-08T07:58:50.205Z,995.03
2018-05-08T08:00:00.300Z,994.99
2018-05-08T08:01:10.128Z,995.04
2018-05-08T08:02:19.979Z,995.08
2018-05-08T08:03:30.069Z,995.09
2018-05-08T08:04:40.228Z,995.11
2018-05-08T08:05:50.296Z,995.1
2018-05-08T08:07:00.388Z,995.09
2018-05-08T08:08:10.487Z,995.01
2018-05-08T08:09:20.068Z,995.06
2018-05-08T08:10:30.178Z,995
2018-05-08T08:11:40.322Z,995.01
2018-05-08T08:12:50.433Z,995
2018-05-08T08:14:00.576Z,995.02
2018-05-08T08:15:10.689Z,995.02
2018-05-08T08:16:20.768Z,995.07
2018-05-08T08:17:30.591Z,995.07
2018-05-08T08:18:40.689Z,995.03
2018-05-08T08:19:50.809Z,995.05
2018-05-08T08:21:00.887Z,995.04
2018-05-08T08:22:10.948Z,995.01
2018-05-08T08:23:20.793Z,995.01
2018-05-08T08:24:30.893Z,994.99
2018-05-08T08:25:41.013Z,994.99
2018-05-08T08:26:50.835Z,994.96
2018-05-08T08:28:00.933Z,994.94
2018-05-08T08:29:11.019Z,994.91
2018-05-08T08:30:21.098Z,994.88
2018-05-08T08:31:31.198Z,994.94
2018-05-08T08:32:41.034Z,994.91
2018-05-08T08:33:51.164Z,994.89
2018-05-08T08:35:01.348Z,994.92
2018-05-08T08:36:11.182Z,994.92
2018-05-08T08:37:21.296Z,994.86
2018-05-08T08:38:30.937Z,994.89
2018-05-08T08:39:41.064Z,994.87
2018-05-08T08:40:51.313Z,994.86
2018-05-08T08:42:01.427Z,994.88
2018-05-08T08:43:11.314Z,994.86
2018-05-08T08:44:21.411Z,994.82
2018-05-08T08:45:31.244Z,994.8
2018-05-08T08:46:41.324Z,994.78
2018-05-08T08:47:51.431Z,994.82
2018-05-08T08:49:01.813Z,994.71
2018-05-08T08:50:11.657Z,994.77
2018-05-08T08:51:21.794Z,994.72
2018-05-08T08:52:32.042Z,994.75
2018-05-08T08:53:42.145Z,994.72
2018-05-08T08:54:52.233Z,994.67
2018-05-08T08:56:02.144Z,994.69
2018-05-08T08:57:11.924Z,994.7
2018-05-08T08:58:21.476Z,994.73
2018-05-08T08:59:31.562Z,994.71
2018-05-08T09:00:41.432Z,994.71
2018-05-08T09:01:51.003Z,994.67
2018-05-08T09:03:01.096Z,994.66
2018-05-08T09:04:11.185Z,994.64
2018-05-08T09:05:21.290Z,994.67
2018-05-08T09:06:31.384Z,994.64
2018-05-08T09:07:41.479Z,994.64
2018-05-08T09:08:51.572Z,994.61
2018-05-08T09:10:01.707Z,994.64
2018-05-08T09:11:11.835Z,994.59
2018-05-08T09:12:21.868Z,994.62
2018-05-08T09:13:31.975Z,994.65
2018-05-08T09:14:42.091Z,994.63
2018-05-08T09:15:51.679Z,994.6
2018-05-08T09:17:01.517Z,994.61
2018-05-08T09:18:11.617Z,994.59
2018-05-08T09:19:21.699Z,994.58
2018-05-08T09:20:31.867Z,994.54
2018-05-08T09:21:41.963Z,994.53
2018-05-08T09:22:52.061Z,994.52
2018-05-08T09:24:02.147Z,994.51
2018-05-08T09:25:12.249Z,994.49
2018-05-08T09:26:22.136Z,994.52
2018-05-08T09:27:32.267Z,994.49
2018-05-08T09:28:42.801Z,994.53
2018-05-08T09:29:52.365Z,994.52
2018-05-08T09:31:02.189Z,994.51
2018-05-08T09:32:12.301Z,994.52
2018-05-08T09:33:22.387Z,994.53
2018-05-08T09:34:32.205Z,994.51
2018-05-08T09:35:42.032Z,994.49
2018-05-08T09:36:52.159Z,994.51
2018-05-08T09:38:02.323Z,994.49
2018-05-08T09:39:11.881Z,994.46
2018-05-08T09:40:21.965Z,994.45
2018-05-08T09:41:32.073Z,994.42
2018-05-08T09:42:41.905Z,994.4
2018-05-08T09:43:52.046Z,994.41
2018-05-08T09:45:02.168Z,994.37
2018-05-08T09:46:12.005Z,994.34
2018-05-08T09:47:21.847Z,994.27
2018-05-08T09:48:31.689Z,994.33
2018-05-08T09:49:41.509Z,994.24
2018-05-08T09:50:51.594Z,994.26
2018-05-08T09:52:01.692Z,994.16
2018-05-08T09:53:11.775Z,994.16
2018-05-08T09:54:21.901Z,994.17
2018-05-08T09:55:32.023Z,994.08
2018-05-08T09:56:41.836Z,994.08
2018-05-08T09:57:51.696Z,994
2018-05-08T09:59:01.534Z,994.06
2018-05-08T10:00:11.647Z,994.06
2018-05-08T10:01:21.794Z,994.04
2018-05-08T10:02:31.892Z,994.02
2018-05-08T10:03:41.990Z,994.04
2018-05-08T10:04:51.819Z,994.01
2018-05-08T10:06:01.918Z,994.01
2018-05-08T10:07:11.750Z,993.98
2018-05-08T10:08:21.828Z,993.95
2018-05-08T10:09:31.653Z,993.91
2018-05-08T10:10:41.543Z,993.92
2018-05-08T10:11:51.662Z,993.92
2018-05-08T10:13:01.759Z,993.9
2018-05-08T10:14:11.619Z,993.92
2018-05-08T10:15:21.452Z,993.86
2018-05-08T10:16:31.281Z,993.83
2018-05-08T10:17:41.120Z,993.82
2018-05-08T10:18:51.219Z,993.85
2018-05-08T10:20:01.619Z,993.83
2018-05-08T10:21:11.461Z,993.82
2018-05-08T10:22:21.619Z,993.82
2018-05-08T10:23:31.712Z,993.83
2018-05-08T10:24:41.911Z,993.83
2018-05-08T10:25:52.087Z,993.83
2018-05-08T10:27:02.189Z,993.8
2018-05-08T10:28:13.595Z,993.76
2018-05-08T10:29:23.448Z,993.76
2018-05-08T10:30:33.533Z,993.78
2018-05-08T10:31:43.759Z,993.74
2018-05-08T10:32:53.897Z,993.78
2018-05-08T10:34:03.626Z,993.77
2018-05-08T10:35:13.461Z,993.73
2018-05-08T10:36:23.585Z,993.76
2018-05-08T10:37:33.409Z,993.76
2018-05-08T10:38:43.483Z,993.75
2018-05-08T10:39:53.551Z,993.72
2018-05-08T10:41:03.667Z,993.75
2018-05-08T10:42:13.536Z,993.7
2018-05-08T10:43:23.764Z,993.67
2018-05-08T10:44:33.844Z,993.66
2018-05-08T10:45:43.928Z,993.64
2018-05-08T10:46:54.022Z,993.7
2018-05-08T10:48:04.170Z,993.68
2018-05-08T10:49:13.999Z,993.64
2018-05-08T10:50:24.105Z,993.65
2018-05-08T10:51:33.936Z,993.66
2018-05-08T10:52:43.797Z,993.63
2018-05-08T10:53:53.673Z,993.63
2018-05-08T10:55:03.786Z,993.62
2018-05-08T10:56:13.865Z,993.65
2018-05-08T10:57:23.969Z,993.62
2018-05-08T10:58:33.543Z,993.59
2018-05-08T10:59:43.370Z,993.52
2018-05-08T11:00:53.192Z,993.55
2018-05-08T11:02:03.287Z,993.51
2018-05-08T11:03:13.361Z,993.48
2018-05-08T11:04:23.480Z,993.52
2018-05-08T11:05:33.657Z,993.48
2018-05-08T11:06:43.746Z,993.53
2018-05-08T11:07:53.843Z,993.48
2018-05-08T11:09:03.946Z,993.46
2018-05-08T11:10:14.383Z,993.46
2018-05-08T11:11:24.474Z,993.46
2018-05-08T11:12:34.559Z,993.48
2018-05-08T11:13:44.651Z,993.41
2018-05-08T11:14:54.752Z,993.38
2018-05-08T11:16:04.866Z,993.4
2018-05-08T11:17:14.689Z,993.4
2018-05-08T11:18:24.761Z,993.38
2018-05-08T11:19:34.853Z,993.35
2018-05-08T11:20:45.108Z,993.33
2018-05-08T11:21:55.219Z,993.35
2018-05-08T11:23:05.352Z,993.28
2018-05-08T11:24:15.206Z,993.26
2018-05-08T11:25:25.310Z,993.25
2018-05-08T11:26:35.480Z,993.25
2018-05-08T11:27:46.528Z,993.22
2018-05-08T11:28:56.348Z,993.24
2018-05-08T11:30:06.428Z,993.26
2018-05-08T11:31:16.550Z,993.23
2018-05-08T11:32:26.656Z,993.23
2018-05-08T11:33:36.486Z,993.25
2018-05-08T11:34:46.617Z,993.26
2018-05-08T11:35:56.709Z,993.29
2018-05-08T11:37:06.803Z,993.22
2018-05-08T11:38:16.925Z,993.2
2018-05-08T11:39:27.015Z,993.18
2018-05-08T11:40:37.089Z,993.16
2018-05-08T11:41:46.946Z,993.11
2018-05-08T11:42:57.032Z,993.11
2018-05-08T11:44:06.958Z,993.1
2018-05-08T11:45:17.042Z,993.06
2018-05-08T11:46:27.181Z,993.03
2018-05-08T11:47:37.009Z,992.97
2018-05-08T11:48:47.108Z,993.01
2018-05-08T11:49:56.741Z,993.05
2018-05-08T11:51:07.256Z,993.09
2018-05-08T11:52:16.876Z,993.07
2018-05-08T11:53:26.699Z,993.05
2018-05-08T11:54:36.529Z,993.04
2018-05-08T11:55:46.652Z,992.96
2018-05-08T11:56:56.474Z,992.95
2018-05-08T11:58:06.336Z,992.88
2018-05-08T11:59:16.449Z,992.86
2018-05-08T12:00:26.552Z,992.92
2018-05-08T12:01:36.658Z,992.89
2018-05-08T12:02:46.477Z,992.88
2018-05-08T12:03:56.558Z,992.88
2018-05-08T12:05:06.394Z,992.86
2018-05-08T12:06:16.497Z,992.91
2018-05-08T12:07:26.319Z,992.86
2018-05-08T12:08:36.441Z,992.89
2018-05-08T12:09:46.576Z,992.87
2018-05-08T12:10:56.416Z,992.88
2018-05-08T12:12:06.532Z,992.81
2018-05-08T12:13:16.623Z,992.75
2018-05-08T12:14:26.727Z,992.72
2018-05-08T12:15:37.227Z,992.74
2018-05-08T12:16:47.324Z,992.62
2018-05-08T12:17:57.152Z,992.63
2018-05-08T12:19:07.255Z,992.67
2018-05-08T12:20:17.363Z,992.58
2018-05-08T12:21:27.504Z,992.62
2018-05-08T12:22:37.318Z,992.62
2018-05-08T12:23:47.423Z,992.62
2018-05-08T12:24:57.518Z,992.59
2018-05-08T12:26:07.641Z,992.61
2018-05-08T12:27:17.771Z,992.59
2018-05-08T12:28:27.853Z,992.56
2018-05-08T12:29:37.966Z,992.56
2018-05-08T12:30:48.061Z,992.54
2018-05-08T12:31:58.148Z,992.47
2018-05-08T12:33:08.032Z,992.46
2018-05-08T12:34:18.126Z,992.44
2018-05-08T12:35:27.962Z,992.39
2018-05-08T12:36:38.077Z,992.35
2018-05-08T12:37:48.184Z,992.25
2018-05-08T12:38:58.281Z,992.38
2018-05-08T12:40:08.173Z,992.3
2018-05-08T12:41:18.034Z,992.3
2018-05-08T12:42:27.864Z,992.28
2018-05-08T12:43:37.960Z,992.19
2018-05-08T12:44:48.044Z,992.2
2018-05-08T12:45:58.142Z,992.18
2018-05-08T12:47:08.239Z,992.2
2018-05-08T12:48:18.341Z,992.16
2018-05-08T12:49:28.432Z,992.17
2018-05-08T12:50:38.584Z,992.1
2018-05-08T12:51:48.795Z,992.12
2018-05-08T12:52:58.396Z,992.08
2018-05-08T12:54:08.510Z,992.07
2018-05-08T12:55:18.612Z,992.04
2018-05-08T12:56:28.708Z,992.01
2018-05-08T12:57:38.816Z,991.95
2018-05-08T12:58:48.927Z,991.93
2018-05-08T12:59:58.899Z,991.91
2018-05-08T13:01:08.763Z,991.91
2018-05-08T13:02:18.925Z,991.9
2018-05-08T13:03:29.011Z,991.88
2018-05-08T13:04:39.148Z,991.87
2018-05-08T13:05:49.271Z,991.81
2018-05-08T13:06:59.381Z,991.77
2018-05-08T13:08:09.215Z,991.8
2018-05-08T13:09:19.042Z,991.75
2018-05-08T13:10:29.152Z,991.73
2018-05-08T13:11:39.262Z,991.73
2018-05-08T13:12:49.131Z,991.72
2018-05-08T13:13:59.239Z,991.73
2018-05-08T13:15:09.406Z,991.71
2018-05-08T13:16:19.504Z,991.73
2018-05-08T13:17:29.338Z,991.72
2018-05-08T13:18:39.475Z,991.68
2018-05-08T13:19:49.303Z,991.68
2018-05-08T13:20:59.383Z,991.65
2018-05-08T13:22:09.480Z,991.63
2018-05-08T13:23:19.579Z,991.67
2018-05-08T13:24:29.676Z,991.71
2018-05-08T13:25:39.590Z,991.66
2018-05-08T13:26:49.726Z,991.59
2018-05-08T13:27:59.314Z,991.59
2018-05-08T13:29:09.136Z,991.58
2018-05-08T13:30:19.220Z,991.55
2018-05-08T13:31:29.329Z,991.52
2018-05-08T13:32:39.446Z,991.49
2018-05-08T13:33:49.553Z,991.46
2018-05-08T13:34:59.658Z,991.48
2018-05-08T13:36:09.759Z,991.48
2018-05-08T13:37:19.888Z,991.47
2018-05-08T13:38:29.720Z,991.45
2018-05-08T13:39:39.838Z,991.45
2018-05-08T13:40:49.688Z,991.44
2018-05-08T13:41:59.829Z,991.47
2018-05-08T13:43:10.232Z,991.43
2018-05-08T13:44:20.385Z,991.4
2018-05-08T13:45:30.517Z,991.38
2018-05-08T13:46:40.607Z,991.41
2018-05-08T13:47:50.696Z,991.44
2018-05-08T13:49:00.853Z,991.33
2018-05-08T13:50:11.011Z,991.36
2018-05-08T13:51:21.105Z,991.35
2018-05-08T13:52:31.186Z,991.37
2018-05-08T13:53:41.266Z,991.37
2018-05-08T13:54:51.363Z,991.34
2018-05-08T13:56:01.756Z,991.36
2018-05-08T13:57:11.844Z,991.37
2018-05-08T13:58:21.935Z,991.36
2018-05-08T13:59:31.782Z,991.32
2018-05-08T14:00:41.351Z,991.36
2018-05-08T14:01:51.541Z,991.31
2018-05-08T14:03:01.656Z,991.39
2018-05-08T14:04:11.748Z,991.37
2018-05-08T14:05:21.847Z,991.35
2018-05-08T14:06:31.987Z,991.33
2018-05-08T14:07:42.855Z,991.3
2018-05-08T14:08:52.974Z,991.28
2018-05-08T14:10:02.812Z,991.28
2018-05-08T14:11:12.933Z,991.22
2018-05-08T14:12:22.779Z,991.27
2018-05-08T14:13:32.878Z,991.21
2018-05-08T14:14:42.964Z,991.16
2018-05-08T14:15:53.090Z,991.33
2018-05-08T14:17:03.203Z,991.28
2018-05-08T14:18:13.051Z,991.34
2018-05-08T14:19:23.047Z,991.3
2018-05-08T14:20:33.452Z,991.32
2018-05-08T14:21:43.310Z,991.28
2018-05-08T14:22:53.386Z,991.34
2018-05-08T14:24:03.501Z,991.31
2018-05-08T14:25:13.616Z,991.38
2018-05-08T14:26:23.818Z,991.42
2018-05-08T14:27:33.897Z,991.37
2018-05-08T14:28:43.999Z,991.38
2018-05-08T14:29:53.851Z,991.34
2018-05-08T14:31:03.939Z,991.31
2018-05-08T14:32:14.048Z,991.35
2018-05-08T14:33:24.144Z,991.36
2018-05-08T14:34:34.262Z,991.42
2018-05-08T14:35:44.400Z,991.39
2018-05-08T14:36:54.574Z,991.39
2018-05-08T14:38:04.609Z,991.4
2018-05-08T14:39:14.446Z,991.44
2018-05-08T14:40:24.273Z,991.43
2018-05-08T14:41:34.375Z,991.42
2018-05-08T14:42:44.465Z,991.46
2018-05-08T14:43:54.568Z,991.56
2018-05-08T14:45:04.738Z,991.61
2018-05-08T14:46:14.848Z,991.59
2018-05-08T14:47:24.961Z,991.62
2018-05-08T14:48:35.107Z,991.6
2018-05-08T14:49:45.220Z,991.58
2018-05-08T14:50:55.314Z,991.61
2018-05-08T14:52:05.420Z,991.6
2018-05-08T14:53:15.514Z,991.58
2018-05-08T14:54:25.418Z,991.61
2018-05-08T14:55:35.549Z,991.67
2018-05-08T14:56:45.636Z,991.66
2018-05-08T14:57:55.468Z,991.72
2018-05-08T14:59:05.560Z,991.74
2018-05-08T15:00:15.703Z,991.7
2018-05-08T15:01:25.813Z,991.66
2018-05-08T15:02:35.652Z,991.69
2018-05-08T15:03:45.752Z,991.68
2018-05-08T15:04:55.564Z,991.71
2018-05-08T15:06:05.436Z,991.73
2018-05-08T15:07:15.277Z,991.72